Arnott, Wisconsin
Current Conditions -  °F | °C
As of 10:15 PM on Wednesday 28 Jan 2015 (Local Time) from KSTE Reporting Station
Overcast Overcast  
Wind Chill: -6°   Ceiling: 2100
Heat Index: -3°   Visibility: 10mi
Dew Point: -7°   Wind: 5mph
Humidity: 79%   Direction: 100°E
Pressure: 29.83"   Gusts: NA
Location:  44.5531°N, 89.5186°W
Report Text: KSTE 290415Z AUTO 10004KT 10SM OVC021 M03/M06 A2983 RMK AO2 T10331065
Loading
Personal Weather Stations






























Interactive Weather Map New forecast layout! Learn more

10-Day Weather Forecast

Advertisements
Track Severe Weather on mobile